Flight Track Log - Related Links

Times and Time Zones

All times are in EDT time to prevent confusion due to time zone crossing. See the KAL1931 flight status page for this flight to view local times or setup timezone preferences in your user account.

Time Position Orientation Groundspeed Altitude Reporting Facility
EDT Latitude Longitude Course Direction KTS MPH feet Rate Location/Type
Sat 07:43:00 PM 34.6673 127.4671 215° Southwest  Level Estimated
Sat 07:44:00 PM 34.6097 127.4178 215° Southwest  Level Estimated
Sat 07:45:00 PM 34.5522 127.3686 215° Southwest  Level Estimated
Sat 07:46:00 PM 34.4946 127.3194 215° Southwest  Level Estimated
Sat 07:47:00 PM 34.4370 127.2703 215° Southwest  Level Estimated
Sat 07:48:00 PM 34.3738 127.2166 215° Southwest  Level Estimated
Sat 07:49:00 PM 34.3107 127.1630 215° Southwest  Level Estimated
Sat 07:50:00 PM 34.2475 127.1095 215° Southwest  Level Estimated
Sat 07:51:00 PM 34.1843 127.0561 215° Southwest  Level Estimated
Sat 07:52:00 PM 34.1211 127.0027 215° Southwest  Level Estimated
Sat 07:53:00 PM 34.0579 126.9495 215° Southwest  Level Estimated
Sat 07:54:00 PM 33.9946 126.8963 215° Southwest  Level Estimated
Sat 07:55:00 PM 33.9313 126.8431 215° Southwest  Level Estimated
Sat 07:56:00 PM 33.8680 126.7901 215° Southwest  Level Estimated
Sat 07:57:00 PM 33.8047 126.7371 215° Southwest  Level Estimated
Sat 07:58:00 PM 33.7413 126.6843 215° Southwest  Level Estimated
Sat 07:59:00 PM 33.6780 126.6314 215° Southwest  Level Estimated
Sat 08:00:00 PM 33.6146 126.5787 215° Southwest  Level Estimated
Sat 08:01:00 PM 33.5512 126.5261 215° Southwest  Level Estimated
Sat 08:02:00 PM 33.5113 126.4930 215° Southwest  Level Estimated
Sat 08:03:00 PM 33.5113 126.4930 North  Level Estimated
Sat 08:04:00 PM 33.5113 126.4930 North  Level Estimated
Sat 08:05:00 PM 33.5113 126.4930 North  Level Estimated
Sat 08:06:00 PM 33.5113 126.4930 North  Level Estimated
Sat 08:07:00 PM 33.5113 126.4930 North  Level Estimated
Sat 08:08:00 PM 33.5113 126.4930 North  Level Estimated
Sat 08:09:00 PM 33.5113 126.4930 North  Level Estimated
Sat 08:10:00 PM 33.5113 126.4930 North  Level Estimated
Sat 08:11:00 PM 33.5113 126.4930 North  Level Estimated
Sat 08:12:00 PM 33.5113 126.4930 North  Level Estimated
Sat 08:13:00 PM 33.5113 126.4930 North  Level Estimated
Sat 08:14:00 PM 33.5113 126.4930 North  Level Estimated
Sat 08:15:00 PM 33.5113 126.4930 North  Level Estimated

Login

Don't have an account? Register now (free) for customized features, flight alerts, and more!